createdAt,value
2017-09-16T00:00:28.717Z,0.00
2017-09-16T00:01:28.711Z,0.00
2017-09-16T00:02:28.707Z,0.00
2017-09-16T00:03:28.701Z,0.00
2017-09-16T00:04:28.695Z,0.00
2017-09-16T00:05:28.691Z,0.00
2017-09-16T00:06:28.686Z,0.00
2017-09-16T00:07:28.680Z,0.00
2017-09-16T00:08:28.675Z,0.00
2017-09-16T00:09:28.670Z,0.00
2017-09-16T00:10:28.664Z,0.00
2017-09-16T00:11:28.659Z,0.00
2017-09-16T00:12:28.653Z,0.00
2017-09-16T00:13:28.649Z,0.00
2017-09-16T00:14:28.644Z,0.00
2017-09-16T00:15:28.638Z,0.00
2017-09-16T00:16:28.632Z,0.00
2017-09-16T00:17:28.628Z,0.00
2017-09-16T00:18:28.624Z,0.00
2017-09-16T00:19:28.620Z,0.00
2017-09-16T00:20:28.612Z,0.00
2017-09-16T00:21:28.606Z,0.00
2017-09-16T00:22:28.601Z,0.00
2017-09-16T00:23:28.595Z,0.00
2017-09-16T00:24:28.590Z,0.00
2017-09-16T00:25:28.586Z,0.00
2017-09-16T00:26:28.580Z,0.00
2017-09-16T00:27:28.575Z,0.00
2017-09-16T00:28:28.570Z,0.00
2017-09-16T00:29:28.566Z,0.00
2017-09-16T00:30:28.561Z,0.00
2017-09-16T00:31:28.554Z,0.00
2017-09-16T00:32:28.548Z,0.00
2017-09-16T00:33:28.545Z,0.00
2017-09-16T00:34:28.540Z,0.00
2017-09-16T00:35:28.532Z,0.00
2017-09-16T00:36:28.528Z,0.00
2017-09-16T00:37:28.524Z,0.00
2017-09-16T00:38:28.518Z,0.00
2017-09-16T00:39:28.514Z,0.00
2017-09-16T00:40:28.507Z,0.00
2017-09-16T00:41:28.503Z,0.00
2017-09-16T00:42:28.497Z,0.00
2017-09-16T00:43:28.494Z,0.00
2017-09-16T00:44:28.487Z,0.00
2017-09-16T00:45:28.481Z,0.00
2017-09-16T00:46:28.479Z,0.00
2017-09-16T00:47:28.469Z,0.00
2017-09-16T00:48:28.466Z,0.00
2017-09-16T00:49:28.461Z,0.00
2017-09-16T00:50:28.454Z,0.00
2017-09-16T00:51:28.450Z,0.00
2017-09-16T00:52:28.445Z,0.00
2017-09-16T00:53:28.442Z,0.00
2017-09-16T00:54:28.435Z,0.00
2017-09-16T00:55:28.429Z,0.00
2017-09-16T00:56:28.424Z,0.00
2017-09-16T00:57:28.419Z,0.00
2017-09-16T00:58:28.414Z,0.00
2017-09-16T00:59:28.407Z,0.00
2017-09-16T01:00:28.403Z,0.00
2017-09-16T01:01:28.398Z,0.00
2017-09-16T01:02:28.393Z,0.00
2017-09-16T01:03:28.387Z,0.00
2017-09-16T01:04:28.385Z,0.00
2017-09-16T01:05:28.376Z,0.00
2017-09-16T01:06:28.372Z,0.00
2017-09-16T01:07:28.366Z,0.00
2017-09-16T01:08:28.361Z,0.00
2017-09-16T01:09:28.355Z,0.00
2017-09-16T01:10:28.350Z,0.00
2017-09-16T01:11:28.345Z,0.00
2017-09-16T01:12:28.339Z,0.00
2017-09-16T01:13:28.335Z,0.00
2017-09-16T01:14:28.330Z,0.00
2017-09-16T01:15:28.323Z,0.00
2017-09-16T01:16:28.318Z,0.00
2017-09-16T01:17:28.314Z,0.00
2017-09-16T01:18:28.307Z,0.00
2017-09-16T01:19:28.303Z,0.00
2017-09-16T01:20:28.295Z,0.00
2017-09-16T01:21:28.291Z,0.00
2017-09-16T01:22:28.285Z,0.00
2017-09-16T01:23:28.281Z,0.00
2017-09-16T01:24:28.275Z,0.00
2017-09-16T01:25:28.271Z,0.00
2017-09-16T01:26:28.265Z,0.00
2017-09-16T01:27:28.258Z,0.00
2017-09-16T01:28:28.255Z,0.00
2017-09-16T01:29:28.249Z,0.00
2017-09-16T01:30:28.244Z,0.00
2017-09-16T01:31:28.237Z,0.00
2017-09-16T01:32:28.233Z,0.00
2017-09-16T01:33:28.228Z,0.00
2017-09-16T01:34:28.222Z,0.00
2017-09-16T01:35:28.217Z,0.00
2017-09-16T01:36:28.211Z,0.00
2017-09-16T01:37:28.206Z,0.00
2017-09-16T01:38:28.200Z,0.00
2017-09-16T01:39:28.194Z,0.00
2017-09-16T01:40:28.189Z,0.00
2017-09-16T01:41:28.185Z,0.00
2017-09-16T01:42:28.179Z,0.00
2017-09-16T01:43:28.173Z,0.00
2017-09-16T01:44:28.166Z,0.00
2017-09-16T01:45:28.162Z,0.00
2017-09-16T01:46:28.158Z,0.00
2017-09-16T01:47:28.151Z,0.00
2017-09-16T01:48:28.146Z,0.00
2017-09-16T01:49:28.141Z,0.00
2017-09-16T01:50:28.136Z,0.00
2017-09-16T01:51:28.129Z,0.00
2017-09-16T01:52:28.124Z,0.00
2017-09-16T01:53:28.119Z,0.00
2017-09-16T01:54:28.114Z,0.00
2017-09-16T01:55:28.107Z,0.00
2017-09-16T01:56:28.101Z,0.00
2017-09-16T01:57:28.095Z,0.00
2017-09-16T01:58:28.092Z,0.00
2017-09-16T01:59:28.084Z,0.00
2017-09-16T02:00:28.080Z,0.00
2017-09-16T02:01:28.075Z,0.00
2017-09-16T02:02:28.069Z,0.00
2017-09-16T02:03:28.064Z,0.00
2017-09-16T02:04:28.058Z,0.00
2017-09-16T02:05:28.052Z,0.00
2017-09-16T02:06:28.048Z,0.00
2017-09-16T02:07:28.040Z,0.00
2017-09-16T02:08:28.035Z,0.00
2017-09-16T02:09:28.030Z,0.00
2017-09-16T02:10:28.026Z,0.00
2017-09-16T02:11:28.018Z,0.00
2017-09-16T02:12:28.014Z,0.00
2017-09-16T02:13:28.008Z,0.00
2017-09-16T02:14:28.003Z,0.00
2017-09-16T02:15:27.997Z,0.00
2017-09-16T02:16:27.990Z,0.00
2017-09-16T02:17:27.985Z,0.00
2017-09-16T02:18:27.983Z,0.00
2017-09-16T02:19:27.973Z,0.00
2017-09-16T02:20:27.968Z,0.00
2017-09-16T02:21:27.964Z,0.00
2017-09-16T02:22:27.957Z,0.00
2017-09-16T02:23:27.952Z,0.00
2017-09-16T02:24:27.950Z,0.00
2017-09-16T02:25:27.940Z,0.00
2017-09-16T02:26:27.938Z,0.00
2017-09-16T02:27:27.928Z,0.00
2017-09-16T02:28:27.923Z,0.00
2017-09-16T02:29:27.918Z,0.00
2017-09-16T02:30:27.913Z,0.00
2017-09-16T02:31:27.905Z,0.00
2017-09-16T02:32:27.901Z,0.00
2017-09-16T02:33:27.895Z,0.00
2017-09-16T02:34:27.892Z,0.00
2017-09-16T02:35:27.884Z,0.00
2017-09-16T02:36:27.879Z,0.00
2017-09-16T02:37:27.872Z,0.00
2017-09-16T02:38:27.865Z,0.00
2017-09-16T02:39:27.861Z,0.00
2017-09-16T02:40:27.856Z,0.00
2017-09-16T02:41:27.848Z,0.00
2017-09-16T02:42:27.878Z,0.00
2017-09-16T02:43:27.838Z,0.00
2017-09-16T02:44:27.831Z,0.00
2017-09-16T02:45:27.827Z,0.00
2017-09-16T02:46:27.821Z,0.00
2017-09-16T02:47:27.814Z,0.00
2017-09-16T02:48:27.811Z,0.00
2017-09-16T02:49:27.806Z,0.00
2017-09-16T02:50:27.798Z,0.00
2017-09-16T02:51:27.793Z,0.00
2017-09-16T02:52:27.787Z,0.00
2017-09-16T02:53:27.784Z,0.00
2017-09-16T02:54:27.776Z,0.00
2017-09-16T02:55:27.768Z,0.00
2017-09-16T02:56:27.765Z,0.00
2017-09-16T02:57:27.760Z,0.00
2017-09-16T02:58:27.752Z,0.00
2017-09-16T02:59:27.757Z,0.00
2017-09-16T03:00:27.741Z,0.00
2017-09-16T03:01:27.734Z,0.00
2017-09-16T03:02:27.729Z,0.00
2017-09-16T03:03:27.723Z,0.00
2017-09-16T03:04:27.718Z,0.00
2017-09-16T03:05:27.713Z,0.00
2017-09-16T03:06:27.707Z,0.00
2017-09-16T03:07:27.701Z,0.00
2017-09-16T03:08:27.693Z,0.00
2017-09-16T03:09:27.688Z,0.00
2017-09-16T03:10:27.684Z,0.00
2017-09-16T03:11:27.680Z,0.00
2017-09-16T03:12:27.671Z,0.00
2017-09-16T03:13:27.666Z,0.00
2017-09-16T03:14:27.668Z,0.00
2017-09-16T03:15:27.654Z,0.00
2017-09-16T03:16:27.648Z,0.00
2017-09-16T03:17:27.643Z,0.00
2017-09-16T03:18:27.637Z,0.00
2017-09-16T03:19:27.631Z,0.00
2017-09-16T03:20:27.626Z,0.00
2017-09-16T03:21:27.620Z,0.00
2017-09-16T03:22:27.614Z,0.00
2017-09-16T03:23:27.609Z,0.00
2017-09-16T03:24:27.601Z,0.00
2017-09-16T03:25:27.596Z,0.00
2017-09-16T03:26:27.590Z,0.00
2017-09-16T03:27:27.584Z,0.00
2017-09-16T03:28:27.579Z,0.00
2017-09-16T03:29:27.574Z,0.00
2017-09-16T03:30:27.570Z,0.00
2017-09-16T03:31:27.569Z,0.00
2017-09-16T03:32:27.555Z,0.00
2017-09-16T03:33:27.552Z,0.00
2017-09-16T03:34:27.545Z,0.00
2017-09-16T03:35:27.538Z,0.00
2017-09-16T03:36:27.533Z,0.00
2017-09-16T03:37:27.528Z,0.00
2017-09-16T03:38:27.522Z,0.00
2017-09-16T03:39:27.516Z,0.00
2017-09-16T03:40:27.511Z,0.00
2017-09-16T03:41:27.504Z,0.00
2017-09-16T03:42:27.500Z,0.00
2017-09-16T03:43:27.493Z,0.00
2017-09-16T03:44:27.487Z,0.00
2017-09-16T03:45:27.482Z,0.00
2017-09-16T03:46:27.476Z,0.00
2017-09-16T03:47:27.470Z,0.00
2017-09-16T03:48:27.463Z,0.00
2017-09-16T03:49:27.459Z,0.00
2017-09-16T03:50:27.455Z,0.00
2017-09-16T03:51:27.445Z,0.00
2017-09-16T03:52:27.443Z,0.00
2017-09-16T03:53:27.435Z,0.00
2017-09-16T03:54:27.430Z,0.00
2017-09-16T03:55:27.424Z,0.00
2017-09-16T03:56:27.417Z,0.00
2017-09-16T03:57:27.411Z,0.00
2017-09-16T03:58:27.407Z,0.00
2017-09-16T03:59:27.399Z,0.00
2017-09-16T04:00:27.395Z,0.00
2017-09-16T04:01:27.389Z,0.00
2017-09-16T04:02:27.382Z,0.00
2017-09-16T04:03:27.377Z,0.00
2017-09-16T04:04:27.370Z,0.00
2017-09-16T04:05:27.365Z,0.00
2017-09-16T04:06:27.360Z,0.00
2017-09-16T04:07:27.352Z,0.00
2017-09-16T04:08:27.348Z,0.00
2017-09-16T04:09:27.343Z,0.00
2017-09-16T04:10:27.336Z,0.00
2017-09-16T04:11:27.330Z,0.00
2017-09-16T04:12:27.323Z,0.00
2017-09-16T04:13:27.318Z,0.00
2017-09-16T04:14:27.313Z,0.00
2017-09-16T04:15:27.305Z,0.00
2017-09-16T04:16:27.301Z,0.00
2017-09-16T04:17:27.297Z,0.00
2017-09-16T04:18:27.290Z,0.00
2017-09-16T04:19:27.284Z,0.00
2017-09-16T04:20:27.277Z,0.00
2017-09-16T04:21:27.275Z,0.00
2017-09-16T04:22:27.266Z,0.00
2017-09-16T04:23:27.260Z,0.00
2017-09-16T04:24:27.254Z,0.00
2017-09-16T04:25:27.251Z,0.00
2017-09-16T04:26:27.243Z,0.00
2017-09-16T04:27:27.236Z,0.00
2017-09-16T04:28:27.230Z,0.00
2017-09-16T04:29:27.224Z,0.00
2017-09-16T04:30:27.219Z,0.00
2017-09-16T04:31:27.212Z,0.00
2017-09-16T04:32:27.210Z,0.00
2017-09-16T04:33:27.201Z,0.00
2017-09-16T04:34:27.195Z,0.00
2017-09-16T04:35:27.188Z,0.00
2017-09-16T04:36:27.183Z,0.00
2017-09-16T04:37:27.176Z,0.00
2017-09-16T04:38:27.172Z,4.00
2017-09-16T04:39:27.163Z,4.00
2017-09-16T04:40:27.160Z,0.00
2017-09-16T04:41:27.153Z,4.00
2017-09-16T04:42:27.147Z,4.00
2017-09-16T04:43:27.141Z,8.00
2017-09-16T04:44:27.133Z,4.00
2017-09-16T04:45:27.127Z,8.00
2017-09-16T04:46:27.123Z,8.00
2017-09-16T04:47:27.116Z,4.00
2017-09-16T04:48:27.110Z,8.00
2017-09-16T04:49:27.105Z,12.00
2017-09-16T04:50:27.099Z,12.00
2017-09-16T04:51:27.093Z,16.00
2017-09-16T04:52:27.086Z,16.00
2017-09-16T04:53:27.081Z,20.00
2017-09-16T04:54:27.075Z,24.00
2017-09-16T04:55:27.068Z,28.00
2017-09-16T04:56:27.061Z,36.00
2017-09-16T04:57:27.056Z,40.00
2017-09-16T04:58:27.055Z,48.00
2017-09-16T04:59:27.043Z,52.00
2017-09-16T05:00:27.039Z,56.00
2017-09-16T05:01:27.032Z,64.00
2017-09-16T05:02:27.027Z,76.00
2017-09-16T05:03:27.025Z,84.00
2017-09-16T05:04:27.014Z,96.00
2017-09-16T05:05:27.015Z,108.00
2017-09-16T05:06:27.004Z,116.00
2017-09-16T05:07:26.997Z,132.00
2017-09-16T05:08:26.991Z,148.00
2017-09-16T05:09:26.985Z,164.00
2017-09-16T05:10:26.979Z,188.00
2017-09-16T05:11:26.972Z,212.00
2017-09-16T05:12:26.967Z,240.00
2017-09-16T05:13:26.961Z,272.00
2017-09-16T05:14:26.957Z,300.00
2017-09-16T05:15:26.950Z,328.00
2017-09-16T05:16:26.943Z,360.00
2017-09-16T05:17:26.938Z,396.00
2017-09-16T05:18:26.933Z,432.00
2017-09-16T05:19:26.933Z,472.00
2017-09-16T05:20:26.921Z,508.00
2017-09-16T05:21:26.915Z,548.00
2017-09-16T05:22:26.909Z,588.00
2017-09-16T05:23:26.903Z,632.00
2017-09-16T05:24:26.900Z,672.00
2017-09-16T05:25:26.892Z,716.00
2017-09-16T05:26:26.886Z,756.00
2017-09-16T05:27:26.879Z,804.00
2017-09-16T05:28:26.875Z,848.00
2017-09-16T05:29:26.868Z,892.00
2017-09-16T05:30:26.862Z,944.00
2017-09-16T05:31:26.857Z,1000.00
2017-09-16T05:32:26.850Z,1060.00
2017-09-16T05:33:26.845Z,1124.00
2017-09-16T05:34:26.841Z,1188.00
2017-09-16T05:35:26.832Z,1276.00
2017-09-16T05:36:26.827Z,1420.00
2017-09-16T05:37:26.821Z,1708.00
2017-09-16T05:38:26.816Z,1968.00
2017-09-16T05:39:26.809Z,2252.00
2017-09-16T05:40:26.804Z,2324.00
2017-09-16T05:41:26.797Z,1800.00
2017-09-16T05:42:26.793Z,1956.00
2017-09-16T05:43:26.785Z,2212.00
2017-09-16T05:44:26.782Z,2780.00
2017-09-16T05:45:26.775Z,3120.00
2017-09-16T05:46:26.770Z,3756.00
2017-09-16T05:47:26.764Z,3536.00
2017-09-16T05:48:26.759Z,4560.00
2017-09-16T05:49:26.754Z,4912.00
2017-09-16T05:50:26.748Z,5428.00
2017-09-16T05:51:26.743Z,5560.00
2017-09-16T05:52:26.738Z,5580.00
2017-09-16T05:53:26.734Z,5296.00
2017-09-16T05:54:26.734Z,4424.00
2017-09-16T05:55:26.724Z,3240.00
2017-09-16T05:56:26.719Z,5344.00
2017-09-16T05:57:26.715Z,7056.00
2017-09-16T05:58:26.711Z,7264.00
2017-09-16T05:59:26.706Z,7364.00
2017-09-16T06:00:26.701Z,7408.00
2017-09-16T06:01:26.700Z,7376.00
2017-09-16T06:02:26.694Z,7512.00
2017-09-16T06:03:26.689Z,8612.00
2017-09-16T06:04:26.685Z,9560.00
2017-09-16T06:05:26.683Z,9952.00
2017-09-16T06:06:26.679Z,9996.00
2017-09-16T06:07:26.676Z,10324.00
2017-09-16T06:08:26.673Z,11120.00
2017-09-16T06:09:26.669Z,12064.00
2017-09-16T06:10:26.667Z,12768.00
2017-09-16T06:11:26.664Z,12928.00
2017-09-16T06:12:26.660Z,13024.00
2017-09-16T06:13:26.660Z,12896.00
2017-09-16T06:14:26.657Z,12864.00
2017-09-16T06:15:26.662Z,13184.00
2017-09-16T06:16:26.653Z,13632.00
2017-09-16T06:17:26.652Z,13664.00
2017-09-16T06:18:26.651Z,13664.00
2017-09-16T06:19:26.648Z,13568.00
2017-09-16T06:20:26.648Z,12272.00
2017-09-16T06:21:26.647Z,12076.00
2017-09-16T06:22:26.646Z,13240.00
2017-09-16T06:23:26.645Z,13520.00
2017-09-16T06:24:26.645Z,14240.00
2017-09-16T06:25:26.645Z,15488.00
2017-09-16T06:26:26.645Z,16992.00
2017-09-16T06:27:26.643Z,17536.00
2017-09-16T06:28:26.645Z,16896.00
2017-09-16T06:29:26.643Z,15520.00
2017-09-16T06:30:26.645Z,14016.00
2017-09-16T06:31:26.644Z,7328.00
2017-09-16T06:32:26.644Z,5784.00
2017-09-16T06:33:26.646Z,5772.00
2017-09-16T06:34:26.647Z,6128.00
2017-09-16T06:35:26.647Z,15648.00
2017-09-16T06:36:26.647Z,16608.00
2017-09-16T06:37:26.649Z,18080.00
2017-09-16T06:38:26.651Z,17984.00
2017-09-16T06:39:26.648Z,18816.00
2017-09-16T06:40:26.651Z,19488.00
2017-09-16T06:41:26.652Z,20288.00
2017-09-16T06:42:26.654Z,20768.00
2017-09-16T06:43:26.654Z,20768.00
2017-09-16T06:44:26.656Z,20608.00
2017-09-16T06:45:26.656Z,20704.00
2017-09-16T06:46:26.660Z,22048.00
2017-09-16T06:47:26.659Z,22592.00
2017-09-16T06:48:26.660Z,22656.00
2017-09-16T06:49:26.665Z,22528.00
2017-09-16T06:50:26.667Z,23072.00
2017-09-16T06:51:26.668Z,23328.00
2017-09-16T06:52:26.670Z,23488.00
2017-09-16T06:53:26.675Z,23712.00
2017-09-16T06:54:26.677Z,23712.00
2017-09-16T06:55:26.678Z,24064.00
2017-09-16T06:56:26.684Z,24224.00
2017-09-16T06:57:26.687Z,24448.00
2017-09-16T06:58:26.692Z,24896.00
2017-09-16T06:59:26.693Z,24800.00
2017-09-16T07:00:26.696Z,24800.00
2017-09-16T07:01:26.701Z,24576.00
2017-09-16T07:02:26.705Z,24416.00
2017-09-16T07:03:26.709Z,24416.00
2017-09-16T07:04:26.713Z,24800.00
2017-09-16T07:05:26.718Z,25472.00
2017-09-16T07:06:26.723Z,25408.00
2017-09-16T07:07:26.727Z,25408.00
2017-09-16T07:08:26.733Z,25408.00
2017-09-16T07:09:26.737Z,25120.00
2017-09-16T07:10:26.743Z,25216.00
2017-09-16T07:11:26.749Z,25504.00
2017-09-16T07:12:26.753Z,25632.00
2017-09-16T07:13:26.759Z,25920.00
2017-09-16T07:14:26.766Z,25856.00
2017-09-16T07:15:26.770Z,25856.00
2017-09-16T07:16:26.776Z,26368.00
2017-09-16T07:17:26.782Z,26752.00
2017-09-16T07:18:26.786Z,14232.00
2017-09-16T07:19:26.793Z,14360.00
2017-09-16T07:20:26.801Z,14544.00
2017-09-16T07:21:26.806Z,14624.00
2017-09-16T07:22:26.812Z,14592.00
2017-09-16T07:23:26.817Z,14644.00
2017-09-16T07:24:26.824Z,14912.00
2017-09-16T07:25:26.830Z,15008.00
2017-09-16T07:26:26.837Z,15264.00
2017-09-16T07:27:26.843Z,15424.00
2017-09-16T07:28:26.849Z,15456.00
2017-09-16T07:29:26.855Z,15552.00
2017-09-16T07:30:26.862Z,15712.00
2017-09-16T07:31:26.869Z,15840.00
2017-09-16T07:32:26.875Z,16032.00
2017-09-16T07:33:26.881Z,16160.00
2017-09-16T07:34:26.889Z,16352.00
2017-09-16T07:35:26.895Z,16608.00
2017-09-16T07:36:26.902Z,16736.00
2017-09-16T07:37:26.909Z,16864.00
2017-09-16T07:38:26.916Z,17120.00
2017-09-16T07:39:26.922Z,17344.00
2017-09-16T07:40:26.930Z,17312.00
2017-09-16T07:41:26.936Z,17280.00
2017-09-16T07:42:26.944Z,17920.00
2017-09-16T07:43:26.951Z,18656.00
2017-09-16T07:44:26.959Z,19104.00
2017-09-16T07:45:26.967Z,20416.00
2017-09-16T07:46:26.974Z,22016.00
2017-09-16T07:47:26.980Z,23104.00
2017-09-16T07:48:26.987Z,22816.00
2017-09-16T07:49:26.997Z,21952.00
2017-09-16T07:50:27.005Z,21760.00
2017-09-16T07:51:27.012Z,20928.00
2017-09-16T07:52:27.019Z,21248.00
2017-09-16T07:53:27.028Z,23232.00
2017-09-16T07:54:27.037Z,23904.00
2017-09-16T07:55:27.044Z,25376.00
2017-09-16T07:56:27.051Z,25376.00
2017-09-16T07:57:27.061Z,26784.00
2017-09-16T07:58:27.071Z,26528.00
2017-09-16T07:59:27.082Z,27776.00
2017-09-16T08:00:27.090Z,28768.00
2017-09-16T08:01:27.097Z,30208.00
2017-09-16T08:02:27.107Z,32576.00
2017-09-16T08:03:27.115Z,21504.00
2017-09-16T08:04:27.124Z,18144.00
2017-09-16T08:05:27.135Z,16544.00
2017-09-16T08:06:27.144Z,15360.00
2017-09-16T08:07:27.170Z,13692.00
2017-09-16T08:08:27.166Z,15584.00
2017-09-16T08:09:27.172Z,17568.00
2017-09-16T08:10:27.183Z,23616.00
2017-09-16T08:11:27.190Z,21408.00
2017-09-16T08:12:27.209Z,23008.00
2017-09-16T08:13:27.208Z,24544.00
2017-09-16T08:14:27.215Z,23808.00
2017-09-16T08:15:27.224Z,34592.00
2017-09-16T08:16:27.230Z,45248.00
2017-09-16T08:17:27.239Z,51040.00
2017-09-16T08:18:27.247Z,53792.00
2017-09-16T08:19:27.254Z,50208.00
2017-09-16T08:20:27.262Z,56352.00
2017-09-16T08:21:27.269Z,63232.00
2017-09-16T08:22:27.277Z,36320.00
2017-09-16T08:23:27.285Z,61920.00
2017-09-16T08:24:27.316Z,29248.00
2017-09-16T08:25:27.300Z,27360.00
2017-09-16T08:26:27.310Z,39680.00
2017-09-16T08:27:27.316Z,27264.00
2017-09-16T08:28:27.325Z,23776.00
2017-09-16T08:29:27.333Z,21856.00
2017-09-16T08:30:27.339Z,23200.00
2017-09-16T08:31:27.347Z,28704.00
2017-09-16T08:32:27.360Z,25920.00
2017-09-16T08:33:27.363Z,43616.00
2017-09-16T08:34:27.370Z,39360.00
2017-09-16T08:35:27.384Z,24704.00
2017-09-16T08:36:27.388Z,32800.00
2017-09-16T08:37:27.481Z,48352.00
2017-09-16T08:38:27.483Z,47840.00
2017-09-16T08:39:27.408Z,46304.00
2017-09-16T08:40:27.418Z,44096.00
2017-09-16T08:41:27.426Z,41440.00
2017-09-16T08:42:27.438Z,40896.00
2017-09-16T08:43:27.440Z,42496.00
2017-09-16T08:44:27.450Z,41344.00
2017-09-16T08:45:27.463Z,39776.00
2017-09-16T08:46:27.472Z,37504.00
2017-09-16T08:47:27.477Z,35328.00
2017-09-16T08:48:27.488Z,34720.00
2017-09-16T08:49:27.502Z,33216.00
2017-09-16T08:50:27.510Z,29600.00
2017-09-16T08:51:27.522Z,26976.00
2017-09-16T08:52:27.528Z,26016.00
2017-09-16T08:53:27.541Z,26656.00
2017-09-16T08:54:27.551Z,26176.00
2017-09-16T08:55:27.562Z,26368.00
2017-09-16T08:56:27.579Z,26112.00
2017-09-16T08:57:27.585Z,26176.00
2017-09-16T08:58:27.598Z,25312.00
2017-09-16T08:59:27.609Z,24512.00
2017-09-16T09:00:27.621Z,25920.00
2017-09-16T09:01:27.635Z,26016.00
2017-09-16T09:02:27.646Z,26080.00
2017-09-16T09:03:27.659Z,10868.00
2017-09-16T09:04:27.673Z,24160.00
2017-09-16T09:05:27.684Z,21472.00
2017-09-16T09:06:27.696Z,16256.00
2017-09-16T09:07:27.709Z,21088.00
2017-09-16T09:08:27.721Z,26944.00
2017-09-16T09:09:27.735Z,25888.00
2017-09-16T09:10:27.749Z,26368.00
2017-09-16T09:11:27.760Z,26240.00
2017-09-16T09:12:27.773Z,27776.00
2017-09-16T09:13:27.786Z,26720.00
2017-09-16T09:14:27.800Z,12824.00
2017-09-16T09:15:27.812Z,27232.00
2017-09-16T09:16:27.826Z,9740.00
2017-09-16T09:17:27.840Z,9212.00
2017-09-16T09:18:27.851Z,29408.00
2017-09-16T09:19:27.865Z,13012.00
2017-09-16T09:20:27.891Z,24256.00
2017-09-16T09:21:27.891Z,26816.00
2017-09-16T09:22:27.904Z,29760.00
2017-09-16T09:23:27.916Z,33120.00
2017-09-16T09:24:27.929Z,32192.00
2017-09-16T09:25:27.942Z,9864.00
2017-09-16T09:26:27.956Z,33280.00
2017-09-16T09:27:27.967Z,33504.00
2017-09-16T09:28:27.979Z,13188.00
2017-09-16T09:29:27.992Z,31136.00
2017-09-16T09:30:28.007Z,11988.00
2017-09-16T09:31:28.017Z,10880.00
2017-09-16T09:32:28.030Z,9900.00
2017-09-16T09:33:28.043Z,7664.00
2017-09-16T09:34:28.057Z,7688.00
2017-09-16T09:35:28.065Z,9200.00
2017-09-16T09:36:28.077Z,14528.00
2017-09-16T09:37:28.089Z,32512.00
2017-09-16T09:38:28.101Z,9828.00
2017-09-16T09:39:28.110Z,8264.00
2017-09-16T09:40:28.121Z,28960.00
2017-09-16T09:41:28.131Z,29024.00
2017-09-16T09:42:28.142Z,27552.00
2017-09-16T09:43:28.152Z,8132.00
2017-09-16T09:44:28.162Z,27680.00
2017-09-16T09:45:28.172Z,26240.00
2017-09-16T09:46:28.183Z,31168.00
2017-09-16T09:47:28.192Z,28736.00
2017-09-16T09:48:28.203Z,16992.00
2017-09-16T09:49:28.220Z,31360.00
2017-09-16T09:50:28.225Z,32288.00
2017-09-16T09:51:28.235Z,31808.00
2017-09-16T09:52:28.245Z,33312.00
2017-09-16T09:53:28.257Z,34528.00
2017-09-16T09:54:28.268Z,34752.00
2017-09-16T09:55:28.278Z,32576.00
2017-09-16T09:56:28.293Z,23616.00
2017-09-16T09:57:28.306Z,8480.00
2017-09-16T09:58:28.318Z,8020.00
2017-09-16T09:59:28.328Z,7224.00
2017-09-16T10:00:28.342Z,7880.00
2017-09-16T10:01:28.356Z,9408.00
2017-09-16T10:02:28.368Z,9748.00
2017-09-16T10:03:28.380Z,9016.00
2017-09-16T10:04:28.392Z,6968.00
2017-09-16T10:05:28.562Z,5432.00
2017-09-16T10:06:28.416Z,7200.00
2017-09-16T10:07:28.426Z,5016.00
2017-09-16T10:08:28.438Z,4984.00
2017-09-16T10:09:28.448Z,5204.00
2017-09-16T10:10:28.460Z,5976.00
2017-09-16T10:11:28.467Z,30880.00
2017-09-16T10:12:28.477Z,30976.00
2017-09-16T10:13:28.486Z,6324.00
2017-09-16T10:14:28.496Z,7032.00
2017-09-16T10:15:28.504Z,5748.00
2017-09-16T10:16:28.520Z,6820.00
2017-09-16T10:17:28.521Z,6008.00
2017-09-16T10:18:28.539Z,5564.00
2017-09-16T10:19:28.536Z,17248.00
2017-09-16T10:20:28.545Z,32864.00
2017-09-16T10:21:28.553Z,34816.00
2017-09-16T10:22:28.562Z,26464.00
2017-09-16T10:24:28.579Z,38112.00
2017-09-16T10:25:28.587Z,37248.00
2017-09-16T10:26:28.595Z,26880.00
2017-09-16T10:27:28.604Z,12200.00
2017-09-16T10:28:28.614Z,12296.00
2017-09-16T10:29:28.622Z,35648.00
2017-09-16T10:30:28.632Z,35456.00
2017-09-16T10:31:28.642Z,34464.00
2017-09-16T10:32:28.651Z,33120.00
2017-09-16T10:33:28.662Z,33664.00
2017-09-16T10:34:28.673Z,34592.00
2017-09-16T10:35:28.682Z,34016.00
2017-09-16T10:36:28.694Z,10788.00
2017-09-16T10:37:28.711Z,7952.00
2017-09-16T10:38:28.718Z,6764.00
2017-09-16T10:39:28.728Z,5864.00
2017-09-16T10:40:28.739Z,4816.00
2017-09-16T10:41:28.752Z,4040.00
2017-09-16T10:42:28.762Z,3296.00
2017-09-16T10:43:28.773Z,3140.00
2017-09-16T10:44:28.785Z,3432.00
2017-09-16T10:45:28.800Z,3688.00
2017-09-16T10:46:28.805Z,4160.00
2017-09-16T10:47:28.814Z,4388.00
2017-09-16T10:48:28.825Z,4564.00
2017-09-16T10:49:28.835Z,4648.00
2017-09-16T10:50:28.846Z,5076.00
2017-09-16T10:51:28.851Z,6304.00
2017-09-16T10:52:28.865Z,6996.00
2017-09-16T10:53:28.873Z,6988.00
2017-09-16T10:54:28.877Z,6536.00
2017-09-16T10:55:28.884Z,6300.00
2017-09-16T10:56:28.890Z,4808.00
2017-09-16T10:57:28.898Z,3868.00
2017-09-16T10:58:28.906Z,3444.00
2017-09-16T10:59:28.912Z,3800.00
2017-09-16T11:00:28.917Z,4192.00
2017-09-16T11:01:28.926Z,4472.00
2017-09-16T11:02:28.931Z,5296.00
2017-09-16T11:03:28.936Z,28608.00
2017-09-16T11:04:28.941Z,29408.00
2017-09-16T11:05:28.947Z,29984.00
2017-09-16T11:06:28.954Z,6760.00
2017-09-16T11:07:28.967Z,5848.00
2017-09-16T11:08:28.967Z,5408.00
2017-09-16T11:09:28.974Z,4776.00
2017-09-16T11:10:28.980Z,4440.00
2017-09-16T11:11:28.983Z,4704.00
2017-09-16T11:12:28.991Z,5304.00
2017-09-16T11:13:28.997Z,5816.00
2017-09-16T11:14:29.003Z,5988.00
2017-09-16T11:15:29.010Z,6128.00
2017-09-16T11:16:29.016Z,5968.00
2017-09-16T11:17:29.024Z,6476.00
2017-09-16T11:18:29.026Z,9712.00
2017-09-16T11:19:29.033Z,7128.00
2017-09-16T11:20:29.037Z,7400.00
2017-09-16T11:21:29.043Z,9700.00
2017-09-16T11:22:29.050Z,5640.00
2017-09-16T11:23:29.052Z,5192.00
2017-09-16T11:24:29.060Z,5344.00
2017-09-16T11:25:29.065Z,6908.00
2017-09-16T11:26:29.072Z,8164.00
2017-09-16T11:27:29.074Z,7908.00
2017-09-16T11:28:29.079Z,6584.00
2017-09-16T11:29:29.084Z,6140.00
2017-09-16T11:30:29.092Z,7588.00
2017-09-16T11:31:29.093Z,8992.00
2017-09-16T11:32:29.098Z,7772.00
2017-09-16T11:33:29.102Z,6372.00
2017-09-16T11:34:29.107Z,5984.00
2017-09-16T11:35:29.111Z,8316.00
2017-09-16T11:36:29.114Z,7792.00
2017-09-16T11:37:29.121Z,9124.00
2017-09-16T11:38:29.125Z,10328.00
2017-09-16T11:39:29.128Z,11132.00
2017-09-16T11:40:29.133Z,11012.00
2017-09-16T11:41:29.163Z,9668.00
2017-09-16T11:42:29.141Z,9420.00
2017-09-16T11:43:29.147Z,8936.00
2017-09-16T11:44:29.148Z,7804.00
2017-09-16T11:45:29.152Z,5740.00
2017-09-16T11:46:29.158Z,6188.00
2017-09-16T11:47:29.161Z,6392.00
2017-09-16T11:48:29.166Z,7136.00
2017-09-16T11:49:29.169Z,7380.00
2017-09-16T11:50:29.174Z,7168.00
2017-09-16T11:51:29.177Z,7912.00
2017-09-16T11:52:29.181Z,9796.00
2017-09-16T11:53:29.185Z,10196.00
2017-09-16T11:54:29.189Z,9816.00
2017-09-16T11:55:29.192Z,8816.00
2017-09-16T11:56:29.196Z,10252.00
2017-09-16T11:57:29.201Z,9880.00
2017-09-16T11:58:29.205Z,8892.00
2017-09-16T11:59:29.207Z,7096.00
2017-09-16T12:00:29.212Z,8048.00
2017-09-16T12:01:29.215Z,9460.00
2017-09-16T12:02:29.219Z,10532.00
2017-09-16T12:03:29.223Z,10784.00
2017-09-16T12:04:29.226Z,11644.00
2017-09-16T12:05:29.231Z,10008.00
2017-09-16T12:06:29.234Z,8452.00
2017-09-16T12:07:29.237Z,7952.00
2017-09-16T12:08:29.243Z,7868.00
2017-09-16T12:09:29.246Z,8984.00
2017-09-16T12:10:29.250Z,9336.00
2017-09-16T12:11:29.253Z,8024.00
2017-09-16T12:12:29.256Z,6168.00
2017-09-16T12:13:29.261Z,5356.00
2017-09-16T12:14:29.264Z,7500.00
2017-09-16T12:15:29.267Z,8244.00
2017-09-16T12:16:29.272Z,9252.00
2017-09-16T12:17:29.275Z,8812.00
2017-09-16T12:18:29.280Z,8716.00
2017-09-16T12:19:29.283Z,7760.00
2017-09-16T12:20:29.288Z,7416.00
2017-09-16T12:21:29.291Z,6492.00
2017-09-16T12:22:29.295Z,6092.00
2017-09-16T12:23:29.302Z,7376.00
2017-09-16T12:24:29.305Z,8184.00
2017-09-16T12:25:29.306Z,9192.00
2017-09-16T12:26:29.309Z,8136.00
2017-09-16T12:27:29.313Z,7416.00